Time;durP1;ratioP1;P1;durP2;ratioP2;P2;SDS_P1;SDS_P2;PMS_P1;PMS_P2;Temp;Humidity;BMP_temperature;BMP_pressure;BME280_temperature;BME280_humidity;BME280_pressure;Samples;Min_cycle;Max_cycle;Signal;HPM_P1;HPM_P2
2022/06/23 00:00:03;;;;;;;4.50;3.05;;;12.40;99.90;;;;;;5056267;28;20053;-73
2022/06/23 00:02:31;;;;;;;4.50;3.22;;;12.30;99.90;;;;;;5055789;28;20025;-73
2022/06/23 00:05:07;;;;;;;3.38;3.00;;;12.30;99.90;;;;;;5055126;28;20051;-74
2022/06/23 00:07:35;;;;;;;3.88;3.05;;;12.30;99.90;;;;;;5056063;28;20031;-73
2022/06/23 00:10:12;;;;;;;3.17;2.85;;;12.20;99.90;;;;;;5055860;28;20017;-73
2022/06/23 00:12:41;;;;;;;3.42;3.13;;;12.10;99.90;;;;;;5055963;28;20106;-73
2022/06/23 00:15:06;;;;;;;3.63;3.28;;;12.10;99.90;;;;;;5055819;28;20021;-73
2022/06/23 00:17:36;;;;;;;5.72;3.20;;;12.00;99.90;;;;;;5073948;28;20470;-73
2022/06/23 00:20:10;;;;;;;3.35;3.13;;;12.00;99.90;;;;;;5057780;28;20035;-73
2022/06/23 00:22:41;;;;;;;3.17;2.70;;;11.90;99.90;;;;;;5076073;28;20386;-73
2022/06/23 00:25:08;;;;;;;4.55;2.80;;;11.90;99.90;;;;;;5075698;28;20023;-73
2022/06/23 00:27:40;;;;;;;3.63;3.08;;;11.80;99.90;;;;;;5075984;28;20095;-73
2022/06/23 00:30:27;;;;;;;4.60;2.72;;;11.70;99.90;;;;;;5057690;28;20016;-72
2022/06/23 00:32:53;;;;;;;3.13;2.60;;;11.70;99.90;;;;;;5075631;28;20421;-73
2022/06/23 00:35:19;;;;;;;5.40;2.90;;;11.70;99.90;;;;;;5075435;28;20035;-72
2022/06/23 00:37:47;;;;;;;3.92;2.90;;;11.70;99.90;;;;;;5057530;28;20070;-73
2022/06/23 00:40:14;;;;;;;3.45;2.90;;;11.70;99.90;;;;;;5075302;28;20025;-73
2022/06/23 00:42:51;;;;;;;3.53;2.92;;;11.70;99.90;;;;;;5075455;28;20542;-73
2022/06/23 00:45:32;;;;;;;3.35;2.85;;;11.70;99.90;;;;;;5075297;28;20111;-73
2022/06/23 00:48:21;;;;;;;3.10;2.90;;;11.60;99.90;;;;;;5075641;28;20478;-73
2022/06/23 00:51:04;;;;;;;3.40;3.10;;;11.60;99.90;;;;;;5075105;28;20031;-73
2022/06/23 00:53:35;;;;;;;4.00;3.10;;;11.50;99.90;;;;;;5075313;28;20024;-73
2022/06/23 00:56:23;;;;;;;3.80;3.20;;;11.50;99.90;;;;;;5075087;28;20042;-72
2022/06/23 00:59:02;;;;;;;8.02;3.08;;;11.50;99.90;;;;;;5044471;28;20025;-73
2022/06/23 01:02:07;;;;;;;4.40;3.15;;;11.50;99.90;;;;;;5055069;28;20065;-72
2022/06/23 01:04:47;;;;;;;7.47;3.42;;;11.40;99.90;;;;;;5016221;28;20033;-73
2022/06/23 01:07:30;;;;;;;4.47;3.03;;;11.30;99.90;;;;;;5014008;28;20049;-73
2022/06/23 01:10:19;;;;;;;3.28;2.97;;;11.20;99.90;;;;;;5015350;28;20026;-73
2022/06/23 01:12:52;;;;;;;4.82;3.85;;;11.10;99.90;;;;;;5015023;28;20073;-73
2022/06/23 01:15:40;;;;;;;6.32;3.40;;;11.10;99.90;;;;;;5013449;28;20080;-73
2022/06/23 01:18:14;;;;;;;3.42;3.13;;;11.10;99.90;;;;;;5033627;28;20052;-73
2022/06/23 01:20:55;;;;;;;3.65;2.78;;;11.10;99.90;;;;;;5033326;28;20087;-73
2022/06/23 01:23:24;;;;;;;3.10;2.75;;;11.00;99.90;;;;;;5033480;28;20041;-73
2022/06/23 01:26:24;;;;;;;4.68;2.90;;;11.00;99.90;;;;;;5033346;28;20399;-72
2022/06/23 01:28:57;;;;;;;3.90;3.35;;;11.00;99.90;;;;;;5002599;28;20127;-73
2022/06/23 01:31:34;;;;;;;3.25;2.95;;;11.00;99.90;;;;;;5034598;28;20029;-73
2022/06/23 01:34:15;;;;;;;3.53;3.13;;;11.00;99.90;;;;;;5033234;28;20064;-73
2022/06/23 01:36:44;;;;;;;5.90;3.30;;;10.90;99.90;;;;;;5033156;28;20021;-73
2022/06/23 01:39:40;;;;;;;3.88;3.03;;;10.90;99.90;;;;;;5034533;28;20022;-73
2022/06/23 01:42:24;;;;;;;4.47;2.88;;;10.90;99.90;;;;;;5034511;28;20490;-72
2022/06/23 01:45:02;;;;;;;4.95;2.70;;;10.80;99.90;;;;;;5032936;28;20113;-73
2022/06/23 01:47:40;;;;;;;3.80;3.25;;;10.80;99.90;;;;;;5034343;28;20573;-72
2022/06/23 01:50:15;;;;;;;3.50;3.20;;;10.70;99.90;;;;;;5032939;28;20399;-73
2022/06/23 01:52:47;;;;;;;3.20;2.90;;;10.70;99.90;;;;;;5034055;28;20041;-73
2022/06/23 01:55:17;;;;;;;3.25;3.00;;;10.70;99.90;;;;;;5034067;28;20399;-73
2022/06/23 01:57:48;;;;;;;3.28;3.03;;;10.70;99.90;;;;;;5030141;28;20464;-73
2022/06/23 02:00:20;;;;;;;5.68;4.07;;;10.70;99.90;;;;;;5014191;28;20112;-73
2022/06/23 02:02:59;;;;;;;4.13;3.42;;;10.70;99.90;;;;;;5014303;28;20073;-73
2022/06/23 02:05:45;;;;;;;3.60;3.20;;;10.60;99.90;;;;;;5025967;28;20053;-73
2022/06/23 02:08:40;;;;;;;3.72;3.35;;;10.60;99.90;;;;;;5053855;28;20032;-73
2022/06/23 02:11:21;;;;;;;3.25;3.00;;;10.60;99.90;;;;;;5053751;28;20029;-73
2022/06/23 02:14:15;;;;;;;5.43;2.85;;;10.60;99.90;;;;;;5035890;28;20029;-73
2022/06/23 02:16:56;;;;;;;3.30;3.00;;;10.50;99.90;;;;;;5065274;28;20363;-73
2022/06/23 02:19:38;;;;;;;4.03;3.20;;;10.50;99.90;;;;;;5055737;28;20032;-73
2022/06/23 02:22:16;;;;;;;3.00;2.75;;;10.40;99.90;;;;;;5073597;28;20031;-73
2022/06/23 02:24:46;;;;;;;3.78;3.47;;;10.40;99.90;;;;;;5073597;28;20027;-73
2022/06/23 02:27:42;;;;;;;3.30;3.10;;;10.30;99.90;;;;;;5054889;28;20063;-73
2022/06/23 02:30:17;;;;;;;4.20;2.92;;;10.30;99.90;;;;;;5069288;28;20044;-73
2022/06/23 02:33:13;;;;;;;3.20;2.90;;;10.20;99.90;;;;;;5073470;28;20040;-73
2022/06/23 02:35:46;;;;;;;5.90;2.70;;;10.20;99.90;;;;;;5073446;28;20020;-73
2022/06/23 02:38:19;;;;;;;4.50;2.80;;;10.10;99.90;;;;;;5073590;28;20119;-73
2022/06/23 02:40:51;;;;;;;3.28;2.70;;;10.10;99.90;;;;;;5055299;28;20021;-73
2022/06/23 02:43:19;;;;;;;4.80;3.13;;;10.10;99.90;;;;;;5055460;28;20063;-73
2022/06/23 02:45:45;;;;;;;3.08;2.78;;;10.10;99.90;;;;;;5073263;28;20115;-72
2022/06/23 02:48:19;;;;;;;3.97;3.30;;;10.10;99.90;;;;;;5073380;28;20052;-73
2022/06/23 02:50:58;;;;;;;3.50;3.20;;;10.10;99.90;;;;;;5073144;28;20021;-73
2022/06/23 02:53:42;;;;;;;3.25;2.95;;;10.20;99.90;;;;;;5073439;28;20021;-73
2022/06/23 02:56:19;;;;;;;4.05;3.38;;;10.20;99.90;;;;;;5073253;28;20060;-73
2022/06/23 02:58:51;;;;;;;3.60;3.30;;;10.20;99.90;;;;;;5060432;28;20071;-73
2022/06/23 03:01:39;;;;;;;4.40;3.40;;;10.20;99.90;;;;;;5053117;28;20466;-72
2022/06/23 03:04:13;;;;;;;4.82;3.25;;;10.20;99.90;;;;;;5035385;28;20024;-73
2022/06/23 03:06:51;;;;;;;4.03;2.47;;;10.30;99.90;;;;;;5035268;28;20060;-73
2022/06/23 03:09:33;;;;;;;5.97;3.88;;;10.20;99.90;;;;;;5053160;28;20021;-73
2022/06/23 03:12:13;;;;;;;4.78;3.38;;;10.20;99.90;;;;;;5035062;28;20044;-73
2022/06/23 03:14:42;;;;;;;4.25;3.60;;;10.30;99.90;;;;;;5053137;28;20391;-73
2022/06/23 03:17:25;;;;;;;4.35;3.13;;;10.30;99.90;;;;;;5068719;28;20035;-73
2022/06/23 03:20:05;;;;;;;;;;;10.30;99.90;;;;;;5073567;28;20165;-73
2022/06/23 03:22:38;;;;;;;7.10;3.50;;;10.40;99.90;;;;;;5072911;28;19912;-73
2022/06/23 03:25:33;;;;;;;3.35;3.05;;;10.50;99.90;;;;;;5055129;28;20474;-73
2022/06/23 03:28:04;;;;;;;3.20;3.00;;;10.70;99.90;;;;;;5068835;28;20036;-73
2022/06/23 03:30:42;;;;;;;4.63;2.97;;;10.90;99.90;;;;;;5072877;28;20158;-73
2022/06/23 03:33:12;;;;;;;4.57;3.00;;;11.00;99.90;;;;;;5072934;28;20036;-74
2022/06/23 03:36:18;;;;;;;3.00;2.47;;;11.30;99.90;;;;;;5054926;28;20036;-73
2022/06/23 03:41:49;;;;;;;2.97;2.50;;;11.80;99.90;;;;;;5076940;28;20086;-73
2022/06/23 03:44:31;;;;;;;2.63;2.40;;;12.10;99.90;;;;;;5058508;28;20021;-73
2022/06/23 03:47:39;;;;;;;5.43;2.35;;;12.30;99.90;;;;;;5076398;28;20024;-73
2022/06/23 03:50:25;;;;;;;2.80;2.60;;;12.60;99.90;;;;;;5032025;28;20051;-73
2022/06/23 03:53:18;;;;;;;4.03;2.60;;;12.80;99.10;;;;;;5058314;28;20118;-73
2022/06/23 03:55:53;;;;;;;3.53;2.28;;;13.00;96.00;;;;;;5076405;28;20119;-73
2022/06/23 03:58:27;;;;;;;2.85;2.63;;;13.20;95.40;;;;;;5066470;28;20021;-73
2022/06/23 04:01:04;;;;;;;4.45;2.72;;;13.40;93.80;;;;;;5056221;28;20394;-73
2022/06/23 04:04:00;;;;;;;3.70;2.92;;;13.60;92.20;;;;;;5056140;28;20028;-73
2022/06/23 04:06:41;;;;;;;3.03;2.83;;;13.80;88.50;;;;;;5056104;28;20064;-73
2022/06/23 04:09:13;;;;;;;4.72;2.75;;;13.90;88.40;;;;;;5056138;28;20021;-73
2022/06/23 04:12:08;;;;;;;6.03;2.95;;;14.10;88.50;;;;;;5055910;28;20036;-73
2022/06/23 04:15:06;;;;;;;3.35;3.05;;;14.20;88.40;;;;;;5055854;28;20483;-73
2022/06/23 04:17:58;;;;;;;3.60;2.97;;;14.40;88.20;;;;;;5074302;28;20036;-73
2022/06/23 04:20:35;;;;;;;2.92;2.63;;;14.60;86.20;;;;;;5075824;28;20031;-73
2022/06/23 04:23:13;;;;;;;2.75;2.45;;;14.70;85.40;;;;;;5075841;28;20021;-73
2022/06/23 04:26:06;;;;;;;4.35;2.20;;;14.80;84.60;;;;;;5075791;28;20112;-73
2022/06/23 04:28:44;;;;;;;2.90;2.70;;;15.00;84.40;;;;;;5057725;28;20017;-73
2022/06/23 04:31:16;;;;;;;5.03;3.15;;;15.30;87.10;;;;;;5057611;28;20033;-73
2022/06/23 04:33:44;;;;;;;3.72;2.97;;;15.30;89.90;;;;;;5075596;28;20020;-73
2022/06/23 04:36:24;;;;;;;3.25;2.70;;;15.20;91.80;;;;;;5075678;28;20028;-73
2022/06/23 04:38:50;;;;;;;2.67;2.47;;;15.20;89.10;;;;;;5075490;28;20021;-74
2022/06/23 04:41:22;;;;;;;3.17;2.92;;;15.20;88.60;;;;;;5075387;28;20523;-73
2022/06/23 04:44:01;;;;;;;4.25;3.25;;;15.20;94.70;;;;;;5057479;28;20389;-74
2022/06/23 04:46:32;;;;;;;3.65;2.70;;;15.30;96.60;;;;;;5075655;28;20032;-73
2022/06/23 04:49:14;;;;;;;4.78;3.05;;;15.40;96.80;;;;;;5074672;28;20107;-73
2022/06/23 04:51:50;;;;;;;4.35;3.13;;;15.40;94.30;;;;;;5057226;28;20036;-74
2022/06/23 04:54:21;;;;;;;3.22;2.92;;;15.50;92.30;;;;;;5075230;28;20021;-73
2022/06/23 04:57:06;;;;;;;2.85;2.60;;;15.60;92.20;;;;;;5075587;28;20020;-73
2022/06/23 04:59:52;;;;;;;4.47;2.70;;;15.60;92.60;;;;;;5055007;28;20107;-73
2022/06/23 05:02:31;;;;;;;2.90;2.50;;;15.70;95.00;;;;;;5055103;28;20061;-73
2022/06/23 05:05:16;;;;;;;2.70;2.50;;;15.80;93.80;;;;;;5054844;28;20479;-73
2022/06/23 05:08:00;;;;;;;3.88;2.80;;;16.00;93.30;;;;;;5054862;28;20514;-73
2022/06/23 05:10:30;;;;;;;4.05;2.88;;;16.10;93.10;;;;;;5054989;28;20053;-73
2022/06/23 05:13:06;;;;;;;2.90;2.70;;;16.10;93.20;;;;;;5054663;28;20048;-74
2022/06/23 05:15:41;;;;;;;3.30;2.60;;;16.20;92.20;;;;;;5057900;28;20091;-74
2022/06/23 05:18:31;;;;;;;3.92;2.45;;;16.30;90.50;;;;;;5056870;28;20116;-73
2022/06/23 05:21:02;;;;;;;3.40;2.63;;;16.30;88.40;;;;;;5074709;28;20379;-73
2022/06/23 05:23:36;;;;;;;4.30;2.38;;;16.50;83.60;;;;;;5056665;28;20477;-73
2022/06/23 05:26:16;;;;;;;3.35;3.05;;;16.60;81.00;;;;;;5074690;28;20112;-74
2022/06/23 05:28:43;;;;;;;3.45;2.40;;;16.80;82.00;;;;;;5074563;28;20017;-74
2022/06/23 05:31:18;;;;;;;4.00;2.70;;;17.00;83.30;;;;;;5074326;28;20039;-73
2022/06/23 05:33:51;;;;;;;4.85;3.17;;;17.20;83.90;;;;;;5056526;28;20032;-73
2022/06/23 05:36:25;;;;;;;6.72;2.90;;;17.30;85.10;;;;;;5074406;28;20021;-73
2022/06/23 05:39:04;;;;;;;4.07;3.50;;;17.40;87.60;;;;;;5074268;28;20048;-74
2022/06/23 05:41:33;;;;;;;3.13;2.83;;;17.60;87.70;;;;;;5056414;28;20017;-73
2022/06/23 05:43:59;;;;;;;4.32;3.42;;;17.70;85.30;;;;;;5074078;28;20028;-73
2022/06/23 05:46:28;;;;;;;3.00;2.70;;;17.90;84.20;;;;;;5074142;28;20386;-73
2022/06/23 05:49:06;;;;;;;4.90;2.70;;;18.00;82.80;;;;;;5074080;28;20051;-73
2022/06/23 05:51:59;;;;;;;2.38;2.22;;;18.10;79.60;;;;;;5074030;28;20039;-73
2022/06/23 05:54:38;;;;;;;;;;;18.30;78.30;;;;;;5074356;28;20027;-74
2022/06/23 05:57:12;;;;;;;3.13;2.85;;;18.40;78.10;;;;;;5074180;28;19904;-73
2022/06/23 05:59:56;;;;;;;4.00;2.63;;;18.60;76.00;;;;;;5053970;28;20108;-73
2022/06/23 06:02:36;;;;;;;4.03;2.15;;;18.70;76.30;;;;;;5053107;28;20475;-73
2022/06/23 06:05:03;;;;;;;3.10;2.75;;;18.90;74.80;;;;;;5053668;28;20049;-73
2022/06/23 06:07:38;;;;;;;3.83;2.35;;;19.10;74.70;;;;;;5053872;28;20040;-73
2022/06/23 06:10:12;;;;;;;6.38;2.45;;;19.30;75.20;;;;;;5053805;28;20017;-73
2022/06/23 06:12:40;;;;;;;2.17;1.85;;;19.50;70.80;;;;;;5053787;28;20041;-73
2022/06/23 06:15:23;;;;;;;2.65;1.88;;;19.70;64.10;;;;;;5053682;28;20028;-73
2022/06/23 06:17:51;;;;;;;;;;;19.90;61.10;;;;;;5073984;28;20031;-73
2022/06/23 06:20:25;;;;;;;3.33;2.30;;;20.10;60.60;;;;;;5073606;28;19904;-73
2022/06/23 06:23:09;;;;;;;4.20;2.75;;;20.40;60.20;;;;;;5073646;28;20054;-73
2022/06/23 06:25:38;;;;;;;2.90;1.83;;;20.50;60.00;;;;;;5073505;28;20493;-73
2022/06/23 06:28:21;;;;;;;5.78;2.00;;;20.70;59.50;;;;;;5073507;28;20048;-73
2022/06/23 06:30:50;;;;;;;;;;;20.80;58.10;;;;;;5073763;28;20024;-73
2022/06/23 06:33:50;;;;;;;3.10;1.60;;;21.00;57.10;;;;;;5055542;28;19912;-73
2022/06/23 06:36:40;;;;;;;1.63;1.42;;;21.20;56.10;;;;;;5069836;28;20489;-74
2022/06/23 06:39:14;;;;;;;2.33;1.63;;;21.30;55.60;;;;;;5055461;28;20500;-73
2022/06/23 06:41:43;;;;;;;1.75;1.65;;;21.50;55.00;;;;;;5073484;28;20024;-74
2022/06/23 06:44:11;;;;;;;2.78;2.05;;;21.60;53.50;;;;;;5073400;28;20039;-73
2022/06/23 06:46:39;;;;;;;2.05;1.55;;;21.80;52.40;;;;;;5073637;28;20393;-74
2022/06/23 06:49:06;;;;;;;3.08;1.80;;;21.80;51.30;;;;;;5073441;28;20029;-74
2022/06/23 06:51:32;;;;;;;2.65;1.90;;;21.80;51.30;;;;;;5073153;28;20455;-73
2022/06/23 06:54:13;;;;;;;2.10;2.00;;;22.00;52.10;;;;;;5055403;28;20111;-74
2022/06/23 06:56:49;;;;;;;2.22;1.77;;;21.90;52.00;;;;;;5073233;28;20471;-74
2022/06/23 06:59:21;;;;;;;2.38;1.70;;;22.10;52.60;;;;;;5073167;28;20025;-74
2022/06/23 07:01:52;;;;;;;2.88;1.77;;;22.20;51.80;;;;;;5073285;28;20099;-73
2022/06/23 07:04:30;;;;;;;3.92;1.63;;;22.00;51.40;;;;;;5073369;28;20538;-73
2022/06/23 07:07:01;;;;;;;3.97;2.75;;;21.80;52.40;;;;;;5055357;28;20044;-73
2022/06/23 07:09:39;;;;;;;2.22;1.95;;;21.90;51.80;;;;;;5073182;28;20013;-73
2022/06/23 07:12:18;;;;;;;3.63;2.35;;;22.10;52.00;;;;;;5073363;28;20032;-73
2022/06/23 07:14:47;;;;;;;1.75;1.60;;;22.00;50.10;;;;;;5077045;28;20024;-73
2022/06/23 07:17:29;;;;;;;1.83;1.73;;;22.20;48.60;;;;;;5059132;28;20103;-73
2022/06/23 07:20:02;;;;;;;1.75;1.50;;;22.40;47.60;;;;;;5057060;28;20432;-73
2022/06/23 07:22:41;;;;;;;3.97;1.50;;;22.60;46.50;;;;;;5056935;28;20101;-73
2022/06/23 07:25:17;;;;;;;2.45;1.73;;;22.70;46.50;;;;;;5039012;28;20017;-74
2022/06/23 07:27:55;;;;;;;1.60;1.50;;;22.70;45.10;;;;;;5056932;28;20111;-74
2022/06/23 07:30:46;;;;;;;1.92;1.60;;;22.80;45.70;;;;;;5056772;28;20032;-74
2022/06/23 07:33:28;;;;;;;3.90;1.75;;;22.90;45.40;;;;;;5056803;28;20029;-73
2022/06/23 07:36:29;;;;;;;3.45;2.28;;;23.10;46.30;;;;;;5038731;28;20025;-73
2022/06/23 07:39:07;;;;;;;2.65;1.98;;;23.00;45.70;;;;;;5039281;28;20055;-72
2022/06/23 07:41:42;;;;;;;3.97;1.80;;;23.20;46.40;;;;;;5056397;28;20397;-72
2022/06/23 07:44:30;;;;;;;3.75;1.83;;;23.20;45.50;;;;;;5056377;28;20059;-73
2022/06/23 07:46:56;;;;;;;2.60;1.60;;;23.20;45.60;;;;;;5056366;28;20051;-73
2022/06/23 07:49:25;;;;;;;1.92;1.73;;;23.20;47.20;;;;;;5056423;28;20429;-73
2022/06/23 07:51:51;;;;;;;5.22;2.00;;;23.30;47.00;;;;;;5038300;28;20060;-73
2022/06/23 07:54:19;;;;;;;2.80;2.13;;;23.10;45.60;;;;;;5056154;28;20028;-73
2022/06/23 07:56:47;;;;;;;1.58;1.50;;;22.80;46.80;;;;;;5055822;28;20047;-73
2022/06/23 07:59:15;;;;;;;2.20;1.70;;;22.60;47.60;;;;;;5074393;28;20028;-73
2022/06/23 08:01:53;;;;;;;2.30;1.42;;;22.80;47.90;;;;;;5058186;28;20028;-73
2022/06/23 08:04:31;;;;;;;2.83;1.60;;;23.10;48.50;;;;;;5076217;28;20105;-73
2022/06/23 08:06:59;;;;;;;2.17;1.90;;;23.30;48.70;;;;;;5076171;28;20394;-73
2022/06/23 08:09:57;;;;;;;3.03;1.73;;;23.40;48.50;;;;;;5076046;28;20028;-73
2022/06/23 08:18:10;;;;;;;2.00;1.90;;;23.10;48.10;;;;;;5056245;28;20048;-73
2022/06/23 08:20:41;;;;;;;3.30;2.10;;;22.90;48.00;;;;;;5055653;28;20044;-73
2022/06/23 08:23:11;;;;;;;2.13;1.77;;;22.40;48.40;;;;;;5037935;28;20029;-74
2022/06/23 08:25:36;;;;;;;1.90;1.80;;;22.10;49.30;;;;;;5054764;28;20017;-74
2022/06/23 08:28:05;;;;;;;2.35;1.55;;;22.10;49.30;;;;;;5037937;28;20020;-74
2022/06/23 08:30:36;;;;;;;4.57;2.28;;;22.30;50.60;;;;;;5037734;28;20052;-74
2022/06/23 08:33:03;;;;;;;2.03;1.92;;;22.70;50.80;;;;;;5055865;28;20068;-73
2022/06/23 08:35:42;;;;;;;4.50;1.77;;;22.60;48.60;;;;;;5055467;28;20068;-74
2022/06/23 08:38:14;;;;;;;2.60;2.22;;;22.50;48.70;;;;;;5055635;28;20099;-74
2022/06/23 08:41:17;;;;;;;2.10;1.77;;;22.20;49.30;;;;;;5037677;28;20441;-74
2022/06/23 08:43:45;;;;;;;4.00;2.70;;;22.30;49.80;;;;;;5055395;28;20025;-74
2022/06/23 08:46:44;;;;;;;5.22;1.65;;;22.30;48.40;;;;;;5055312;28;20028;-74
2022/06/23 08:49:32;;;;;;;2.92;1.95;;;22.60;49.40;;;;;;5037487;28;20033;-74
2022/06/23 08:52:07;;;;;;;4.95;1.77;;;22.80;47.80;;;;;;5055099;28;20491;-74
2022/06/23 08:54:49;;;;;;;3.20;1.85;;;22.40;47.80;;;;;;5055093;28;20116;-74
2022/06/23 08:57:43;;;;;;;3.90;1.83;;;22.00;48.30;;;;;;5057493;28;20013;-73
2022/06/23 09:00:45;;;;;;;2.47;1.95;;;22.00;48.30;;;;;;5075173;28;20055;-73
2022/06/23 09:03:27;;;;;;;2.50;1.90;;;22.00;50.30;;;;;;5074987;28;20071;-74
2022/06/23 09:06:14;;;;;;;2.07;1.80;;;21.70;50.70;;;;;;5074894;28;20056;-73
2022/06/23 09:08:54;;;;;;;3.50;1.88;;;21.60;51.70;;;;;;5075059;28;20036;-73
2022/06/23 09:11:28;;;;;;;2.35;1.90;;;21.80;51.00;;;;;;5074754;28;20040;-74
2022/06/23 09:14:38;;;;;;;2.28;1.85;;;22.40;50.00;;;;;;5075029;28;20044;-74
2022/06/23 09:17:13;;;;;;;5.18;1.90;;;22.80;48.50;;;;;;5070469;28;20040;-73
2022/06/23 09:19:53;;;;;;;3.60;2.08;;;22.80;47.70;;;;;;5074699;28;20027;-74
2022/06/23 09:22:41;;;;;;;3.30;1.92;;;23.20;48.00;;;;;;5074708;28;20429;-74
2022/06/23 09:25:22;;;;;;;2.00;1.90;;;23.20;46.70;;;;;;5074701;28;20167;-74
2022/06/23 09:27:48;;;;;;;4.07;1.70;;;23.50;47.80;;;;;;5074514;28;20021;-74
2022/06/23 09:30:51;;;;;;;3.20;2.03;;;23.20;47.00;;;;;;5056431;28;20025;-73
2022/06/23 09:33:40;;;;;;;2.63;1.80;;;23.30;46.30;;;;;;5056440;28;20131;-74
2022/06/23 09:36:27;;;;;;;2.42;2.00;;;23.20;47.20;;;;;;5074435;28;20050;-74
2022/06/23 09:39:11;;;;;;;2.60;1.98;;;23.50;47.70;;;;;;5056314;28;20027;-74
2022/06/23 09:41:52;;;;;;;1.92;1.83;;;23.60;46.30;;;;;;5056308;28;20028;-74
2022/06/23 09:44:56;;;;;;;3.22;2.15;;;23.90;44.80;;;;;;5074257;28;20032;-74
2022/06/23 09:48:00;;;;;;;2.67;2.35;;;23.60;46.40;;;;;;4992747;28;20497;-74
2022/06/23 09:50:45;;;;;;;3.83;2.30;;;23.40;46.00;;;;;;4992941;28;20408;-74
2022/06/23 09:53:42;;;;;;;2.95;1.90;;;23.60;47.00;;;;;;5062909;28;20119;-74
2022/06/23 09:56:46;;;;;;;2.15;1.95;;;23.80;45.30;;;;;;5074030;28;20028;-73
2022/06/23 09:59:32;;;;;;;2.90;2.20;;;24.00;44.60;;;;;;5013963;28;20048;-74
2022/06/23 10:02:04;;;;;;;2.70;1.88;;;24.00;45.20;;;;;;5036142;28;20502;-74
2022/06/23 10:04:48;;;;;;;5.25;2.13;;;23.70;46.20;;;;;;5053885;28;20399;-74
2022/06/23 10:07:41;;;;;;;2.47;2.15;;;23.60;46.90;;;;;;5053669;28;20025;-74
2022/06/23 10:10:13;;;;;;;3.65;2.22;;;23.30;47.20;;;;;;5053913;28;20396;-73
2022/06/23 10:13:03;;;;;;;1.77;1.67;;;23.40;48.40;;;;;;5053663;28;20091;-74
2022/06/23 10:15:49;;;;;;;3.63;2.55;;;23.70;49.60;;;;;;5040168;28;20032;-73
2022/06/23 10:18:51;;;;;;;2.20;2.00;;;23.70;47.80;;;;;;5073752;28;20141;-74
2022/06/23 10:21:46;;;;;;;3.72;2.35;;;23.50;47.60;;;;;;5073674;28;20028;-74
2022/06/23 10:24:53;;;;;;;2.33;2.05;;;23.50;47.80;;;;;;5055653;28;20017;-73
2022/06/23 10:27:33;;;;;;;3.08;2.17;;;23.70;47.90;;;;;;5061985;28;20032;-74
2022/06/23 10:30:22;;;;;;;4.47;2.10;;;24.00;46.80;;;;;;5073724;28;20024;-74
2022/06/23 10:32:54;;;;;;;2.50;2.30;;;23.80;47.70;;;;;;5073207;28;20071;-73
2022/06/23 10:36:02;;;;;;;2.67;2.28;;;23.60;48.40;;;;;;5073580;28;20028;-74
2022/06/23 10:38:28;;;;;;;4.10;1.80;;;23.50;48.70;;;;;;5056213;28;20045;-74
2022/06/23 10:41:30;;;;;;;3.45;2.38;;;23.50;49.00;;;;;;5073400;28;20031;-74
2022/06/23 10:44:25;;;;;;;3.17;2.13;;;23.30;49.30;;;;;;5073338;28;20074;-74
2022/06/23 10:47:07;;;;;;;2.67;1.98;;;23.80;48.40;;;;;;5054992;28;20028;-74
2022/06/23 10:49:41;;;;;;;2.30;2.20;;;24.00;47.00;;;;;;5055345;28;20123;-74
2022/06/23 10:52:14;;;;;;;1.90;1.80;;;24.20;45.20;;;;;;5073305;28;20397;-74
2022/06/23 10:54:43;;;;;;;1.92;1.73;;;24.50;45.10;;;;;;5073262;28;20359;-74
2022/06/23 10:57:33;;;;;;;4.20;2.28;;;24.60;44.00;;;;;;5053121;28;20025;-74
2022/06/23 11:00:04;;;;;;;2.30;2.10;;;24.80;45.10;;;;;;5053169;28;20029;-74
2022/06/23 11:02:54;;;;;;;1.73;1.63;;;24.50;44.30;;;;;;5053249;28;20025;-74
2022/06/23 11:05:31;;;;;;;2.30;2.00;;;24.40;42.80;;;;;;5052954;28;20546;-74
2022/06/23 11:08:09;;;;;;;2.28;2.10;;;24.20;42.00;;;;;;5053165;28;20032;-74
2022/06/23 11:10:43;;;;;;;1.90;1.80;;;24.30;41.40;;;;;;5053245;28;20032;-74
2022/06/23 11:13:32;;;;;;;2.42;2.20;;;24.60;42.50;;;;;;5035088;28;20040;-74
2022/06/23 11:16:05;;;;;;;3.95;2.00;;;25.00;42.40;;;;;;5061834;28;20089;-74
2022/06/23 11:19:01;;;;;;;1.70;1.60;;;25.40;42.60;;;;;;5073242;28;20028;-74
2022/06/23 11:21:47;;;;;;;3.13;2.00;;;25.50;44.70;;;;;;5073099;28;20027;-74
2022/06/23 11:24:15;;;;;;;4.30;2.53;;;25.30;43.90;;;;;;5054909;28;20024;-74
2022/06/23 11:27:05;;;;;;;2.13;1.98;;;25.40;42.40;;;;;;5073122;28;20055;-73
2022/06/23 11:29:51;;;;;;;3.60;1.85;;;25.40;42.10;;;;;;5072972;28;20021;-74
2022/06/23 11:32:40;;;;;;;3.60;1.70;;;25.50;42.40;;;;;;5072928;28;20449;-74
2022/06/23 11:35:24;;;;;;;3.28;2.25;;;25.30;42.00;;;;;;5073011;28;20031;-74
2022/06/23 11:38:08;;;;;;;2.40;2.20;;;25.30;41.80;;;;;;5073026;28;20033;-74
2022/06/23 11:40:39;;;;;;;2.00;1.90;;;25.40;41.40;;;;;;5072690;28;20048;-74
2022/06/23 11:43:09;;;;;;;2.97;2.53;;;25.10;41.80;;;;;;5054937;28;20020;-74
2022/06/23 11:45:59;;;;;;;2.53;1.83;;;25.00;41.10;;;;;;5054758;28;20470;-74
2022/06/23 11:48:30;;;;;;;1.80;1.70;;;25.30;42.10;;;;;;5072954;28;20028;-73
2022/06/23 11:51:18;;;;;;;2.33;2.13;;;25.20;42.70;;;;;;5072591;28;20047;-74
2022/06/23 11:54:01;;;;;;;3.13;2.30;;;25.20;42.80;;;;;;5072792;28;20090;-74
2022/06/23 11:56:48;;;;;;;2.05;1.77;;;25.20;41.70;;;;;;5054758;28;20028;-74
2022/06/23 11:59:38;;;;;;;1.70;1.60;;;25.20;40.70;;;;;;5053172;28;20088;-74
2022/06/23 12:02:03;;;;;;;1.42;1.38;;;25.30;40.00;;;;;;5038336;28;20021;-74
2022/06/23 12:04:41;;;;;;;2.10;2.00;;;25.40;39.60;;;;;;5056147;28;20028;-74
2022/06/23 12:07:19;;;;;;;2.45;1.83;;;25.60;39.10;;;;;;5056278;28;20037;-74
2022/06/23 12:10:14;;;;;;;3.25;1.80;;;25.60;39.50;;;;;;5056116;28;20438;-74
2022/06/23 12:12:43;;;;;;;5.65;1.90;;;25.90;39.30;;;;;;5056055;28;20039;-74
2022/06/23 12:15:12;;;;;;;2.25;1.73;;;26.10;38.90;;;;;;5058175;28;20025;-73
2022/06/23 12:17:50;;;;;;;2.05;1.95;;;25.90;38.00;;;;;;5076037;28;20020;-74
2022/06/23 12:20:27;;;;;;;2.85;2.00;;;25.90;38.30;;;;;;5075825;28;20086;-74
2022/06/23 12:23:07;;;;;;;1.88;1.77;;;25.90;38.50;;;;;;5075818;28;20020;-74
2022/06/23 12:26:04;;;;;;;2.08;1.60;;;25.70;39.20;;;;;;5075773;28;20020;-74
2022/06/23 12:29:06;;;;;;;1.83;1.67;;;25.60;38.70;;;;;;5057805;28;20031;-74
2022/06/23 12:32:13;;;;;;;1.60;1.50;;;25.90;38.60;;;;;;5075805;28;20398;-74
2022/06/23 12:34:48;;;;;;;2.08;1.98;;;25.80;39.00;;;;;;5057315;28;20033;-74
2022/06/23 12:37:37;;;;;;;4.78;2.20;;;26.10;39.70;;;;;;5075680;28;20025;-74
2022/06/23 12:40:23;;;;;;;1.52;1.38;;;25.60;39.30;;;;;;5075694;28;20025;-74
2022/06/23 12:42:54;;;;;;;1.63;1.52;;;25.30;39.20;;;;;;5057567;28;20554;-74
2022/06/23 12:45:29;;;;;;;1.90;1.60;;;25.50;39.90;;;;;;5057544;28;20051;-74
2022/06/23 12:48:00;;;;;;;3.40;1.75;;;25.50;39.80;;;;;;5057475;28;20028;-74
2022/06/23 12:50:29;;;;;;;3.28;1.83;;;25.40;39.80;;;;;;5075454;28;20107;-74
2022/06/23 12:53:15;;;;;;;2.42;1.63;;;25.50;39.30;;;;;;5075221;28;20044;-74
2022/06/23 12:56:00;;;;;;;1.83;1.58;;;25.60;38.40;;;;;;5075225;28;20024;-74
2022/06/23 12:58:34;;;;;;;1.92;1.80;;;25.60;37.40;;;;;;5061730;28;20532;-74
2022/06/23 13:01:11;;;;;;;1.83;1.73;;;25.80;37.20;;;;;;5055212;28;20025;-74
2022/06/23 13:03:58;;;;;;;2.30;1.80;;;26.00;37.50;;;;;;5055214;28;20021;-74
2022/06/23 13:06:29;;;;;;;1.90;1.80;;;26.20;37.20;;;;;;5037033;28;20503;-74
2022/06/23 13:08:58;;;;;;;2.95;1.83;;;26.40;37.50;;;;;;5055027;28;20024;-74
2022/06/23 13:11:38;;;;;;;4.38;2.00;;;26.20;38.20;;;;;;5054255;28;20017;-74
2022/06/23 13:14:14;;;;;;;1.65;1.55;;;26.10;38.80;;;;;;5055080;28;20021;-74
2022/06/23 13:17:04;;;;;;;1.80;1.70;;;26.10;38.50;;;;;;5051988;28;20111;-74
2022/06/23 13:19:46;;;;;;;1.77;1.63;;;26.10;38.70;;;;;;5074828;28;20390;-74
2022/06/23 13:22:11;;;;;;;4.47;2.00;;;26.10;38.70;;;;;;5074703;28;20027;-74
2022/06/23 13:24:42;;;;;;;1.50;1.40;;;26.10;39.30;;;;;;5074690;28;20028;-74
2022/06/23 13:27:21;;;;;;;2.38;2.20;;;26.20;37.90;;;;;;5074624;28;20025;-74
2022/06/23 13:29:46;;;;;;;2.53;1.55;;;25.90;39.10;;;;;;5074521;28;20021;-74
2022/06/23 13:32:26;;;;;;;1.83;1.55;;;26.00;39.80;;;;;;5074415;28;20482;-75
2022/06/23 13:35:05;;;;;;;1.60;1.50;;;25.90;39.70;;;;;;5056465;28;20021;-74
2022/06/23 13:37:53;;;;;;;4.30;2.28;;;26.00;39.60;;;;;;5056516;28;20382;-74
2022/06/23 13:40:31;;;;;;;4.03;1.98;;;26.10;39.10;;;;;;5056340;28;20382;-74
2022/06/23 13:43:15;;;;;;;1.58;1.48;;;26.20;39.00;;;;;;5074350;28;20058;-74
2022/06/23 13:45:52;;;;;;;2.22;1.45;;;26.20;40.20;;;;;;5074207;28;20070;-74
2022/06/23 13:48:33;;;;;;;1.35;1.25;;;26.10;40.40;;;;;;5074296;28;20047;-74
2022/06/23 13:51:17;;;;;;;1.73;1.63;;;26.00;41.40;;;;;;5074176;28;20051;-74
2022/06/23 13:53:54;;;;;;;1.88;1.50;;;26.00;40.80;;;;;;5074237;28;20067;-74
2022/06/23 13:56:25;;;;;;;21.00;12.55;;;25.80;40.40;;;;;;5074313;28;20020;-74
2022/06/23 13:58:58;;;;;;;3.05;2.10;;;25.80;40.30;;;;;;5038907;28;20029;-74